sensor_id;sensor_type;location;lat;lon;timestamp;pressure;altitude;pressure_sealevel;temperature;humidity
10310;BME280;5200;43.236;27.986;2024-02-26T00:02:02;99880.53;;;7.18;100.00
10310;BME280;5200;43.236;27.986;2024-02-26T00:04:29;99923.88;;;7.34;100.00
10310;BME280;5200;43.236;27.986;2024-02-26T00:06:56;99911.13;;;7.29;100.00
10310;BME280;5200;43.236;27.986;2024-02-26T00:09:23;99917.19;;;7.41;100.00
10310;BME280;5200;43.236;27.986;2024-02-26T00:11:50;99897.69;;;7.34;100.00
10310;BME280;5200;43.236;27.986;2024-02-26T00:14:17;99909.81;;;7.46;100.00
10310;BME280;5200;43.236;27.986;2024-02-26T00:16:45;99911.47;;;7.47;100.00
10310;BME280;5200;43.236;27.986;2024-02-26T00:19:12;99897.44;;;7.48;100.00
10310;BME280;5200;43.236;27.986;2024-02-26T00:21:40;99911.25;;;7.50;100.00
10310;BME280;5200;43.236;27.986;2024-02-26T00:24:07;99902.19;;;7.54;100.00
10310;BME280;5200;43.236;27.986;2024-02-26T00:26:34;99896.47;;;7.49;100.00
10310;BME280;5200;43.236;27.986;2024-02-26T00:29:01;99890.88;;;7.43;100.00
10310;BME280;5200;43.236;27.986;2024-02-26T00:31:28;99889.34;;;7.51;100.00
10310;BME280;5200;43.236;27.986;2024-02-26T00:33:57;99896.00;;;7.55;100.00
10310;BME280;5200;43.236;27.986;2024-02-26T00:36:23;99880.75;;;7.49;100.00
10310;BME280;5200;43.236;27.986;2024-02-26T00:38:50;99878.50;;;7.56;100.00
10310;BME280;5200;43.236;27.986;2024-02-26T00:41:17;99894.31;;;7.66;100.00
10310;BME280;5200;43.236;27.986;2024-02-26T00:43:44;99897.66;;;7.68;100.00
10310;BME280;5200;43.236;27.986;2024-02-26T00:46:11;99899.28;;;7.69;100.00
10310;BME280;5200;43.236;27.986;2024-02-26T00:48:38;99893.22;;;7.68;100.00
10310;BME280;5200;43.236;27.986;2024-02-26T00:51:06;99888.81;;;7.69;100.00
10310;BME280;5200;43.236;27.986;2024-02-26T00:53:34;99880.13;;;7.68;100.00
10310;BME280;5200;43.236;27.986;2024-02-26T00:56:00;99866.50;;;7.42;100.00
10310;BME280;5200;43.236;27.986;2024-02-26T00:58:27;99876.25;;;7.29;100.00
10310;BME280;5200;43.236;27.986;2024-02-26T01:00:54;99856.75;;;6.88;100.00
10310;BME280;5200;43.236;27.986;2024-02-26T01:03:21;99871.38;;;6.90;100.00
10310;BME280;5200;43.236;27.986;2024-02-26T01:05:48;99847.44;;;6.72;100.00
10310;BME280;5200;43.236;27.986;2024-02-26T01:08:16;99867.81;;;6.80;100.00
10310;BME280;5200;43.236;27.986;2024-02-26T01:10:43;99850.31;;;6.69;100.00
10310;BME280;5200;43.236;27.986;2024-02-26T01:13:10;99847.47;;;6.84;100.00
10310;BME280;5200;43.236;27.986;2024-02-26T01:15:37;99860.44;;;7.19;100.00
10310;BME280;5200;43.236;27.986;2024-02-26T01:18:04;99863.88;;;7.42;100.00
10310;BME280;5200;43.236;27.986;2024-02-26T01:20:31;99856.59;;;7.57;100.00
10310;BME280;5200;43.236;27.986;2024-02-26T01:22:57;99856.00;;;7.65;100.00
10310;BME280;5200;43.236;27.986;2024-02-26T01:25:26;99833.75;;;7.59;100.00
10310;BME280;5200;43.236;27.986;2024-02-26T01:27:53;99831.56;;;7.64;100.00
10310;BME280;5200;43.236;27.986;2024-02-26T01:30:19;99858.69;;;7.86;100.00
10310;BME280;5200;43.236;27.986;2024-02-26T01:32:46;99857.38;;;7.80;100.00
10310;BME280;5200;43.236;27.986;2024-02-26T01:35:13;99860.34;;;7.87;100.00
10310;BME280;5200;43.236;27.986;2024-02-26T01:37:40;99860.97;;;7.79;100.00
10310;BME280;5200;43.236;27.986;2024-02-26T01:40:08;99861.91;;;7.78;100.00
10310;BME280;5200;43.236;27.986;2024-02-26T01:42:38;99869.03;;;7.76;100.00
10310;BME280;5200;43.236;27.986;2024-02-26T01:45:05;99846.72;;;7.60;100.00
10310;BME280;5200;43.236;27.986;2024-02-26T01:47:33;99869.56;;;7.70;100.00
10310;BME280;5200;43.236;27.986;2024-02-26T01:50:00;99872.28;;;7.68;100.00
10310;BME280;5200;43.236;27.986;2024-02-26T01:52:27;99868.94;;;7.66;100.00
10310;BME280;5200;43.236;27.986;2024-02-26T01:54:54;99870.19;;;7.62;100.00
10310;BME280;5200;43.236;27.986;2024-02-26T01:57:21;99875.53;;;7.60;100.00
10310;BME280;5200;43.236;27.986;2024-02-26T01:59:49;99858.41;;;7.45;100.00
10310;BME280;5200;43.236;27.986;2024-02-26T02:02:16;99859.63;;;7.41;100.00
10310;BME280;5200;43.236;27.986;2024-02-26T02:04:43;99863.53;;;7.24;100.00
10310;BME280;5200;43.236;27.986;2024-02-26T02:07:10;99877.56;;;7.23;100.00
10310;BME280;5200;43.236;27.986;2024-02-26T02:09:37;99863.19;;;6.95;100.00
10310;BME280;5200;43.236;27.986;2024-02-26T02:12:04;99867.22;;;6.88;100.00
10310;BME280;5200;43.236;27.986;2024-02-26T02:14:32;99855.81;;;6.77;100.00
10310;BME280;5200;43.236;27.986;2024-02-26T02:17:00;99878.84;;;6.84;100.00
10310;BME280;5200;43.236;27.986;2024-02-26T02:19:27;99876.25;;;6.84;100.00
10310;BME280;5200;43.236;27.986;2024-02-26T02:21:55;99854.38;;;6.73;100.00
10310;BME280;5200;43.236;27.986;2024-02-26T02:24:22;99847.72;;;6.81;100.00
10310;BME280;5200;43.236;27.986;2024-02-26T02:26:49;99847.94;;;6.89;100.00
10310;BME280;5200;43.236;27.986;2024-02-26T02:29:16;99872.69;;;7.07;100.00
10310;BME280;5200;43.236;27.986;2024-02-26T02:31:43;99869.13;;;7.08;100.00
10310;BME280;5200;43.236;27.986;2024-02-26T02:34:10;99868.19;;;7.09;100.00
10310;BME280;5200;43.236;27.986;2024-02-26T02:36:48;99866.38;;;7.10;100.00
10310;BME280;5200;43.236;27.986;2024-02-26T02:39:17;99856.78;;;6.99;100.00
10310;BME280;5200;43.236;27.986;2024-02-26T02:41:44;99867.59;;;7.06;100.00
10310;BME280;5200;43.236;27.986;2024-02-26T02:44:10;99842.72;;;6.89;100.00
10310;BME280;5200;43.236;27.986;2024-02-26T02:46:37;99861.03;;;7.00;100.00
10310;BME280;5200;43.236;27.986;2024-02-26T02:49:08;99842.13;;;6.85;100.00
10310;BME280;5200;43.236;27.986;2024-02-26T02:51:35;99839.88;;;6.81;100.00
10310;BME280;5200;43.236;27.986;2024-02-26T02:54:02;99843.19;;;6.83;100.00
10310;BME280;5200;43.236;27.986;2024-02-26T02:56:30;99863.28;;;6.93;100.00
10310;BME280;5200;43.236;27.986;2024-02-26T02:58:57;99850.69;;;6.87;100.00
10310;BME280;5200;43.236;27.986;2024-02-26T03:01:24;99842.97;;;6.86;100.00
10310;BME280;5200;43.236;27.986;2024-02-26T03:03:51;99865.69;;;6.96;100.00
10310;BME280;5200;43.236;27.986;2024-02-26T03:06:18;99848.69;;;7.02;100.00
10310;BME280;5200;43.236;27.986;2024-02-26T03:08:46;99864.84;;;7.07;100.00
10310;BME280;5200;43.236;27.986;2024-02-26T03:11:13;99840.47;;;6.95;100.00
10310;BME280;5200;43.236;27.986;2024-02-26T03:13:42;99854.97;;;6.99;100.00
10310;BME280;5200;43.236;27.986;2024-02-26T03:16:09;99846.16;;;7.01;100.00
10310;BME280;5200;43.236;27.986;2024-02-26T03:18:38;99873.88;;;7.14;100.00
10310;BME280;5200;43.236;27.986;2024-02-26T03:21:05;99852.25;;;7.01;100.00
10310;BME280;5200;43.236;27.986;2024-02-26T03:23:32;99875.56;;;7.15;100.00
10310;BME280;5200;43.236;27.986;2024-02-26T03:26:02;99879.97;;;7.15;100.00
10310;BME280;5200;43.236;27.986;2024-02-26T03:28:29;99853.09;;;7.02;100.00
10310;BME280;5200;43.236;27.986;2024-02-26T03:30:57;99861.75;;;7.02;100.00
10310;BME280;5200;43.236;27.986;2024-02-26T03:33:24;99877.72;;;7.10;100.00
10310;BME280;5200;43.236;27.986;2024-02-26T03:35:51;99860.09;;;7.01;100.00
10310;BME280;5200;43.236;27.986;2024-02-26T03:38:18;99858.22;;;7.03;100.00
10310;BME280;5200;43.236;27.986;2024-02-26T03:40:45;99854.38;;;6.96;100.00
10310;BME280;5200;43.236;27.986;2024-02-26T03:43:12;99872.22;;;7.02;100.00
10310;BME280;5200;43.236;27.986;2024-02-26T03:45:38;99871.28;;;7.03;100.00
10310;BME280;5200;43.236;27.986;2024-02-26T03:48:07;99881.25;;;7.09;100.00
10310;BME280;5200;43.236;27.986;2024-02-26T03:50:34;99865.44;;;6.99;100.00
10310;BME280;5200;43.236;27.986;2024-02-26T03:53:01;99878.63;;;7.09;100.00
10310;BME280;5200;43.236;27.986;2024-02-26T03:55:28;99885.31;;;7.13;100.00
10310;BME280;5200;43.236;27.986;2024-02-26T03:57:55;99874.50;;;7.18;100.00
10310;BME280;5200;43.236;27.986;2024-02-26T04:00:22;99875.31;;;7.18;100.00
10310;BME280;5200;43.236;27.986;2024-02-26T04:02:50;99876.97;;;7.19;100.00
10310;BME280;5200;43.236;27.986;2024-02-26T04:05:19;99876.97;;;7.19;100.00
10310;BME280;5200;43.236;27.986;2024-02-26T04:07:45;99864.13;;;7.05;100.00
10310;BME280;5200;43.236;27.986;2024-02-26T04:10:12;99883.63;;;7.12;100.00
10310;BME280;5200;43.236;27.986;2024-02-26T04:12:40;99874.13;;;7.11;100.00
10310;BME280;5200;43.236;27.986;2024-02-26T04:15:07;99871.75;;;7.08;100.00
10310;BME280;5200;43.236;27.986;2024-02-26T04:17:35;99881.50;;;7.06;100.00
10310;BME280;5200;43.236;27.986;2024-02-26T04:20:03;99858.91;;;6.94;100.00
10310;BME280;5200;43.236;27.986;2024-02-26T04:22:32;99871.13;;;6.93;100.00
10310;BME280;5200;43.236;27.986;2024-02-26T04:24:59;99880.31;;;6.99;100.00
10310;BME280;5200;43.236;27.986;2024-02-26T04:27:26;99870.78;;;6.87;100.00
10310;BME280;5200;43.236;27.986;2024-02-26T04:29:53;99883.38;;;6.93;100.00
10310;BME280;5200;43.236;27.986;2024-02-26T04:32:19;99869.34;;;6.83;100.00
10310;BME280;5200;43.236;27.986;2024-02-26T04:34:46;99858.06;;;6.82;100.00
10310;BME280;5200;43.236;27.986;2024-02-26T04:37:13;99876.72;;;7.00;100.00
10310;BME280;5200;43.236;27.986;2024-02-26T04:39:41;99867.00;;;7.02;100.00
10310;BME280;5200;43.236;27.986;2024-02-26T04:42:08;99865.56;;;7.09;100.00
10310;BME280;5200;43.236;27.986;2024-02-26T04:44:35;99862.00;;;7.10;100.00
10310;BME280;5200;43.236;27.986;2024-02-26T04:47:02;99849.63;;;7.01;100.00
10310;BME280;5200;43.236;27.986;2024-02-26T04:49:29;99847.84;;;7.02;100.00
10310;BME280;5200;43.236;27.986;2024-02-26T04:51:55;99871.63;;;7.10;100.00
10310;BME280;5200;43.236;27.986;2024-02-26T04:54:23;99848.31;;;6.95;100.00
10310;BME280;5200;43.236;27.986;2024-02-26T04:56:51;99869.13;;;7.08;100.00
10310;BME280;5200;43.236;27.986;2024-02-26T04:59:18;99876.28;;;7.06;100.00
10310;BME280;5200;43.236;27.986;2024-02-26T05:01:44;99869.13;;;7.08;100.00
10310;BME280;5200;43.236;27.986;2024-02-26T05:04:11;99855.59;;;7.03;100.00
10310;BME280;5200;43.236;27.986;2024-02-26T05:06:38;99878.03;;;7.17;100.00
10310;BME280;5200;43.236;27.986;2024-02-26T05:09:05;99846.78;;;7.04;100.00
10310;BME280;5200;43.236;27.986;2024-02-26T05:11:32;99875.31;;;7.18;100.00
10310;BME280;5200;43.236;27.986;2024-02-26T05:14:01;99878.03;;;7.17;100.00
10310;BME280;5200;43.236;27.986;2024-02-26T05:16:28;99867.94;;;7.12;100.00
10310;BME280;5200;43.236;27.986;2024-02-26T05:18:56;99883.88;;;7.20;100.00
10310;BME280;5200;43.236;27.986;2024-02-26T05:21:23;99877.94;;;7.30;100.00
10310;BME280;5200;43.236;27.986;2024-02-26T05:23:50;99864.97;;;7.28;100.00
10310;BME280;5200;43.236;27.986;2024-02-26T05:26:19;99876.75;;;7.34;100.00
10310;BME280;5200;43.236;27.986;2024-02-26T05:28:47;99871.88;;;7.29;100.00
10310;BME280;5200;43.236;27.986;2024-02-26T05:31:16;99894.09;;;7.35;100.00
10310;BME280;5200;43.236;27.986;2024-02-26T05:33:43;99892.56;;;7.32;100.00
10310;BME280;5200;43.236;27.986;2024-02-26T05:36:10;99890.31;;;7.39;100.00
10310;BME280;5200;43.236;27.986;2024-02-26T05:38:37;99893.59;;;7.52;100.00
10310;BME280;5200;43.236;27.986;2024-02-26T05:41:04;99900.03;;;7.59;100.00
10310;BME280;5200;43.236;27.986;2024-02-26T05:43:31;99901.22;;;7.67;100.00
10310;BME280;5200;43.236;27.986;2024-02-26T05:45:58;99876.44;;;7.71;100.00
10310;BME280;5200;43.236;27.986;2024-02-26T05:48:26;99905.22;;;7.82;100.00
10310;BME280;5200;43.236;27.986;2024-02-26T05:50:53;99910.31;;;7.95;100.00
10310;BME280;5200;43.236;27.986;2024-02-26T05:53:20;99899.25;;;7.91;100.00
10310;BME280;5200;43.236;27.986;2024-02-26T05:55:46;99910.63;;;8.13;100.00
10310;BME280;5200;43.236;27.986;2024-02-26T05:58:13;99917.00;;;8.31;100.00
10310;BME280;5200;43.236;27.986;2024-02-26T06:00:40;99909.59;;;8.36;100.00
10310;BME280;5200;43.236;27.986;2024-02-26T06:03:07;99927.66;;;8.51;100.00
10310;BME280;5200;43.236;27.986;2024-02-26T06:05:35;99920.50;;;8.53;100.00
10310;BME280;5200;43.236;27.986;2024-02-26T06:08:02;99914.63;;;8.60;100.00
10310;BME280;5200;43.236;27.986;2024-02-26T06:10:30;99925.38;;;8.78;100.00
10310;BME280;5200;43.236;27.986;2024-02-26T06:12:57;99896.47;;;8.89;100.00
10310;BME280;5200;43.236;27.986;2024-02-26T06:15:23;99893.94;;;9.09;100.00
10310;BME280;5200;43.236;27.986;2024-02-26T06:17:50;99911.06;;;9.34;100.00
10310;BME280;5200;43.236;27.986;2024-02-26T06:20:17;99915.53;;;9.53;100.00
10310;BME280;5200;43.236;27.986;2024-02-26T06:22:45;99918.41;;;9.81;100.00
10310;BME280;5200;43.236;27.986;2024-02-26T06:25:12;99902.19;;;9.76;100.00
10310;BME280;5200;43.236;27.986;2024-02-26T06:27:39;99920.47;;;9.87;100.00
10310;BME280;5200;43.236;27.986;2024-02-26T06:30:06;99910.34;;;9.82;100.00
10310;BME280;5200;43.236;27.986;2024-02-26T06:32:36;99908.72;;;9.81;100.00
10310;BME280;5200;43.236;27.986;2024-02-26T06:35:03;99913.41;;;9.87;100.00
10310;BME280;5200;43.236;27.986;2024-02-26T06:37:32;99902.34;;;9.84;100.00
10310;BME280;5200;43.236;27.986;2024-02-26T06:40:00;99923.38;;;9.84;100.00
10310;BME280;5200;43.236;27.986;2024-02-26T06:42:29;99898.44;;;9.68;100.00
10310;BME280;5200;43.236;27.986;2024-02-26T06:44:57;99924.69;;;9.68;100.00
10310;BME280;5200;43.236;27.986;2024-02-26T06:47:24;99924.00;;;9.66;100.00
10310;BME280;5200;43.236;27.986;2024-02-26T06:49:51;99921.66;;;9.63;100.00
10310;BME280;5200;43.236;27.986;2024-02-26T06:52:18;99928.31;;;9.67;100.00
10310;BME280;5200;43.236;27.986;2024-02-26T06:54:45;99917.97;;;9.45;100.00
10310;BME280;5200;43.236;27.986;2024-02-26T06:57:15;99922.94;;;9.38;100.00
10310;BME280;5200;43.236;27.986;2024-02-26T06:59:41;99901.66;;;9.31;100.00
10310;BME280;5200;43.236;27.986;2024-02-26T07:02:11;99927.94;;;9.41;100.00
10310;BME280;5200;43.236;27.986;2024-02-26T07:04:38;99921.13;;;9.29;100.00
10310;BME280;5200;43.236;27.986;2024-02-26T07:07:04;99923.59;;;9.30;100.00
10310;BME280;5200;43.236;27.986;2024-02-26T07:09:31;99915.69;;;9.21;100.00
10310;BME280;5200;43.236;27.986;2024-02-26T07:11:58;99922.09;;;9.38;100.00
10310;BME280;5200;43.236;27.986;2024-02-26T07:14:26;99919.97;;;9.52;100.00
10310;BME280;5200;43.236;27.986;2024-02-26T07:16:53;99907.56;;;9.64;100.00
10310;BME280;5200;43.236;27.986;2024-02-26T07:19:20;99914.56;;;10.04;100.00
10310;BME280;5200;43.236;27.986;2024-02-26T07:21:47;99916.25;;;10.34;100.00
10310;BME280;5200;43.236;27.986;2024-02-26T07:24:14;99911.56;;;10.48;100.00
10310;BME280;5200;43.236;27.986;2024-02-26T07:26:41;99893.81;;;10.60;100.00
10310;BME280;5200;43.236;27.986;2024-02-26T07:29:07;99905.69;;;10.83;100.00
10310;BME280;5200;43.236;27.986;2024-02-26T07:31:36;99908.03;;;10.96;100.00
10310;BME280;5200;43.236;27.986;2024-02-26T07:34:02;99893.75;;;10.98;100.00
10310;BME280;5200;43.236;27.986;2024-02-26T07:36:29;99910.38;;;10.99;100.00
10310;BME280;5200;43.236;27.986;2024-02-26T07:38:56;99907.16;;;11.05;100.00
10310;BME280;5200;43.236;27.986;2024-02-26T07:41:23;99913.63;;;11.20;100.00
10310;BME280;5200;43.236;27.986;2024-02-26T07:43:50;99900.84;;;11.26;100.00
10310;BME280;5200;43.236;27.986;2024-02-26T07:46:18;99908.28;;;11.12;100.00
10310;BME280;5200;43.236;27.986;2024-02-26T07:48:46;99903.44;;;11.08;100.00
10310;BME280;5200;43.236;27.986;2024-02-26T07:51:13;99897.19;;;11.09;100.00
10310;BME280;5200;43.236;27.986;2024-02-26T07:53:40;99890.66;;;11.13;100.00
10310;BME280;5200;43.236;27.986;2024-02-26T07:56:07;99906.09;;;11.35;100.00
10310;BME280;5200;43.236;27.986;2024-02-26T07:58:34;99913.28;;;11.43;100.00
10310;BME280;5200;43.236;27.986;2024-02-26T08:01:01;99912.22;;;11.36;100.00
10310;BME280;5200;43.236;27.986;2024-02-26T08:03:28;99915.78;;;11.35;100.00
10310;BME280;5200;43.236;27.986;2024-02-26T08:05:56;99921.63;;;11.38;100.00
10310;BME280;5200;43.236;27.986;2024-02-26T08:08:22;99924.97;;;11.31;100.00
10310;BME280;5200;43.236;27.986;2024-02-26T08:10:49;99917.19;;;11.39;100.00
10310;BME280;5200;43.236;27.986;2024-02-26T08:13:16;99922.16;;;11.70;100.00
10310;BME280;5200;43.236;27.986;2024-02-26T08:15:43;99906.97;;;11.81;100.00
10310;BME280;5200;43.236;27.986;2024-02-26T08:18:10;99920.28;;;12.08;100.00
10310;BME280;5200;43.236;27.986;2024-02-26T08:20:36;99924.66;;;11.99;100.00
10310;BME280;5200;43.236;27.986;2024-02-26T08:23:05;99924.81;;;12.15;100.00
10310;BME280;5200;43.236;27.986;2024-02-26T08:25:32;99921.50;;;12.13;100.00
10310;BME280;5200;43.236;27.986;2024-02-26T08:28:00;99910.72;;;11.89;100.00
10310;BME280;5200;43.236;27.986;2024-02-26T08:30:27;99927.22;;;11.91;100.00
10310;BME280;5200;43.236;27.986;2024-02-26T08:32:54;99902.22;;;11.67;100.00
10310;BME280;5200;43.236;27.986;2024-02-26T08:35:20;99922.06;;;11.61;100.00
10310;BME280;5200;43.236;27.986;2024-02-26T08:37:47;99927.16;;;11.35;100.00
10310;BME280;5200;43.236;27.986;2024-02-26T08:40:16;99938.25;;;11.39;100.00
10310;BME280;5200;43.236;27.986;2024-02-26T08:42:44;99933.28;;;11.26;100.00
10310;BME280;5200;43.236;27.986;2024-02-26T08:45:11;99934.19;;;11.07;100.00
10310;BME280;5200;43.236;27.986;2024-02-26T08:47:39;99929.75;;;11.08;100.00
10310;BME280;5200;43.236;27.986;2024-02-26T08:50:06;99930.28;;;11.11;100.00
10310;BME280;5200;43.236;27.986;2024-02-26T08:52:34;99933.75;;;11.49;100.00
10310;BME280;5200;43.236;27.986;2024-02-26T08:55:02;99942.31;;;11.61;100.00
10310;BME280;5200;43.236;27.986;2024-02-26T08:57:31;99934.00;;;11.56;100.00
10310;BME280;5200;43.236;27.986;2024-02-26T08:59:59;99935.44;;;11.50;100.00
10310;BME280;5200;43.236;27.986;2024-02-26T09:02:26;99942.00;;;11.64;100.00
10310;BME280;5200;43.236;27.986;2024-02-26T09:04:52;99944.41;;;11.57;100.00
10310;BME280;5200;43.236;27.986;2024-02-26T09:07:20;99928.09;;;11.44;100.00
10310;BME280;5200;43.236;27.986;2024-02-26T09:09:47;99947.88;;;11.58;100.00
10310;BME280;5200;43.236;27.986;2024-02-26T09:12:14;99954.34;;;11.63;100.00
10310;BME280;5200;43.236;27.986;2024-02-26T09:14:42;99940.91;;;11.67;100.00
10310;BME280;5200;43.236;27.986;2024-02-26T09:17:09;99941.19;;;11.63;100.00
10310;BME280;5200;43.236;27.986;2024-02-26T09:19:36;99934.09;;;11.64;100.00
10310;BME280;5200;43.236;27.986;2024-02-26T09:22:03;99936.72;;;11.64;100.00
10310;BME280;5200;43.236;27.986;2024-02-26T09:24:30;99931.66;;;11.80;100.00
10310;BME280;5200;43.236;27.986;2024-02-26T09:26:57;99939.97;;;11.58;100.00
10310;BME280;5200;43.236;27.986;2024-02-26T09:29:23;99929.31;;;11.50;100.00
10310;BME280;5200;43.236;27.986;2024-02-26T09:31:53;99942.81;;;11.37;100.00
10310;BME280;5200;43.236;27.986;2024-02-26T09:34:20;99938.06;;;11.13;100.00
10310;BME280;5200;43.236;27.986;2024-02-26T09:36:47;99935.03;;;10.88;100.00
10310;BME280;5200;43.236;27.986;2024-02-26T09:39:13;99936.31;;;10.84;100.00
10310;BME280;5200;43.236;27.986;2024-02-26T09:41:45;99932.28;;;10.90;100.00
10310;BME280;5200;43.236;27.986;2024-02-26T09:44:16;99940.88;;;10.92;100.00
10310;BME280;5200;43.236;27.986;2024-02-26T09:46:45;99930.91;;;10.86;100.00
10310;BME280;5200;43.236;27.986;2024-02-26T09:49:14;99932.84;;;10.74;100.00
10310;BME280;5200;43.236;27.986;2024-02-26T09:51:41;99937.56;;;10.80;100.00
10310;BME280;5200;43.236;27.986;2024-02-26T09:54:09;99929.28;;;10.75;100.00
10310;BME280;5200;43.236;27.986;2024-02-26T09:56:38;99924.66;;;10.77;100.00
10310;BME280;5200;43.236;27.986;2024-02-26T09:59:06;99918.38;;;11.07;100.00
10310;BME280;5200;43.236;27.986;2024-02-26T10:01:39;99917.22;;;11.29;100.00
10310;BME280;5200;43.236;27.986;2024-02-26T10:04:08;99918.00;;;11.39;100.00
10310;BME280;5200;43.236;27.986;2024-02-26T10:06:38;99895.41;;;11.37;100.00
10310;BME280;5200;43.236;27.986;2024-02-26T10:09:05;99907.41;;;11.49;100.00
10310;BME280;5200;43.236;27.986;2024-02-26T10:11:35;99928.16;;;11.62;100.00
10310;BME280;5200;43.236;27.986;2024-02-26T10:14:02;99920.94;;;11.64;100.00
10310;BME280;5200;43.236;27.986;2024-02-26T10:16:29;99905.72;;;11.58;100.00
10310;BME280;5200;43.236;27.986;2024-02-26T10:18:56;99899.38;;;11.51;100.00
10310;BME280;5200;43.236;27.986;2024-02-26T10:21:24;99908.66;;;11.55;100.00
10310;BME280;5200;43.236;27.986;2024-02-26T10:23:52;99908.84;;;11.43;100.00
10310;BME280;5200;43.236;27.986;2024-02-26T10:26:20;99911.47;;;11.43;100.00
10310;BME280;5200;43.236;27.986;2024-02-26T10:28:47;99902.75;;;11.43;100.00
10310;BME280;5200;43.236;27.986;2024-02-26T10:31:14;99890.72;;;11.31;100.00
10310;BME280;5200;43.236;27.986;2024-02-26T10:33:42;99903.31;;;11.37;100.00
10310;BME280;5200;43.236;27.986;2024-02-26T10:36:09;99905.25;;;11.35;100.00
10310;BME280;5200;43.236;27.986;2024-02-26T10:38:37;99886.19;;;11.23;100.00
10310;BME280;5200;43.236;27.986;2024-02-26T10:41:06;99895.84;;;11.32;100.00
10310;BME280;5200;43.236;27.986;2024-02-26T10:43:33;99893.94;;;11.25;100.00
10310;BME280;5200;43.236;27.986;2024-02-26T10:46:00;99889.53;;;11.15;100.00
10310;BME280;5200;43.236;27.986;2024-02-26T10:48:27;99885.88;;;11.26;100.00
10310;BME280;5200;43.236;27.986;2024-02-26T10:50:54;99893.00;;;11.16;100.00
10310;BME280;5200;43.236;27.986;2024-02-26T10:53:23;99863.25;;;11.06;100.00
10310;BME280;5200;43.236;27.986;2024-02-26T10:55:54;99885.13;;;11.43;100.00
10310;BME280;5200;43.236;27.986;2024-02-26T10:58:24;99875.97;;;11.48;100.00
10310;BME280;5200;43.236;27.986;2024-02-26T11:00:52;99879.88;;;11.61;100.00
10310;BME280;5200;43.236;27.986;2024-02-26T11:03:20;99865.63;;;11.36;100.00
10310;BME280;5200;43.236;27.986;2024-02-26T11:05:48;99866.28;;;11.11;100.00
10310;BME280;5200;43.236;27.986;2024-02-26T11:08:18;99871.84;;;11.08;100.00
10310;BME280;5200;43.236;27.986;2024-02-26T11:10:47;99854.16;;;10.90;100.00
10310;BME280;5200;43.236;27.986;2024-02-26T11:13:15;99869.16;;;10.80;100.00
10310;BME280;5200;43.236;27.986;2024-02-26T11:15:46;99863.47;;;10.65;100.00
10310;BME280;5200;43.236;27.986;2024-02-26T11:18:14;99873.63;;;10.50;100.00
10310;BME280;5200;43.236;27.986;2024-02-26T11:20:42;99875.69;;;10.56;100.00
10310;BME280;5200;43.236;27.986;2024-02-26T11:23:09;99867.94;;;10.45;100.00
10310;BME280;5200;43.236;27.986;2024-02-26T11:25:36;99865.06;;;10.29;100.00
10310;BME280;5200;43.236;27.986;2024-02-26T11:28:06;99871.41;;;10.16;100.00
10310;BME280;5200;43.236;27.986;2024-02-26T11:30:38;99872.75;;;10.01;100.00
10310;BME280;5200;43.236;27.986;2024-02-26T11:33:08;99872.75;;;10.01;100.00
10310;BME280;5200;43.236;27.986;2024-02-26T11:35:37;99861.00;;;10.05;100.00
10310;BME280;5200;43.236;27.986;2024-02-26T11:38:05;99865.69;;;10.02;100.00
10310;BME280;5200;43.236;27.986;2024-02-26T11:40:33;99846.63;;;10.00;100.00
10310;BME280;5200;43.236;27.986;2024-02-26T11:43:05;99863.09;;;10.11;100.00
10310;BME280;5200;43.236;27.986;2024-02-26T11:45:50;99854.78;;;10.26;100.00
10310;BME280;5200;43.236;27.986;2024-02-26T11:48:23;99865.31;;;10.45;100.00
10310;BME280;5200;43.236;27.986;2024-02-26T11:50:51;99858.69;;;10.41;100.00
10310;BME280;5200;43.236;27.986;2024-02-26T11:53:23;99862.69;;;10.45;100.00
10310;BME280;5200;43.236;27.986;2024-02-26T11:56:22;99855.38;;;10.49;100.00
10310;BME280;5200;43.236;27.986;2024-02-26T11:58:54;99858.13;;;10.28;100.00
10310;BME280;5200;43.236;27.986;2024-02-26T12:01:39;99860.88;;;10.16;100.00
10310;BME280;5200;43.236;27.986;2024-02-26T12:04:11;99856.75;;;10.14;100.00
10310;BME280;5200;43.236;27.986;2024-02-26T12:06:44;99855.88;;;10.13;100.00
10310;BME280;5200;43.236;27.986;2024-02-26T12:09:11;99846.47;;;10.01;100.00
10310;BME280;5200;43.236;27.986;2024-02-26T12:11:40;99862.69;;;10.16;100.00
10310;BME280;5200;43.236;27.986;2024-02-26T12:14:08;99862.53;;;10.18;100.00
10310;BME280;5200;43.236;27.986;2024-02-26T12:16:36;99852.00;;;10.18;100.00
10310;BME280;5200;43.236;27.986;2024-02-26T12:19:09;99848.03;;;10.23;100.00
10310;BME280;5200;43.236;27.986;2024-02-26T12:21:37;99867.78;;;10.18;100.00
10310;BME280;5200;43.236;27.986;2024-02-26T12:24:09;99861.13;;;10.13;100.00
10310;BME280;5200;43.236;27.986;2024-02-26T12:26:36;99864.34;;;10.17;100.00
10310;BME280;5200;43.236;27.986;2024-02-26T12:29:03;99862.81;;;10.14;100.00
10310;BME280;5200;43.236;27.986;2024-02-26T12:31:30;99862.00;;;10.04;100.00
10310;BME280;5200;43.236;27.986;2024-02-26T12:33:58;99863.94;;;10.02;100.00
10310;BME280;5200;43.236;27.986;2024-02-26T12:36:27;99865.69;;;10.02;100.00
10310;BME280;5200;43.236;27.986;2024-02-26T12:38:54;99844.69;;;10.11;100.00
10310;BME280;5200;43.236;27.986;2024-02-26T12:41:22;99847.19;;;10.03;100.00
10310;BME280;5200;43.236;27.986;2024-02-26T12:43:49;99857.00;;;10.01;100.00
10310;BME280;5200;43.236;27.986;2024-02-26T12:46:16;99846.22;;;10.04;100.00
10310;BME280;5200;43.236;27.986;2024-02-26T12:48:43;99862.53;;;10.08;100.00
10310;BME280;5200;43.236;27.986;2024-02-26T12:51:12;99854.38;;;10.11;100.00
10310;BME280;5200;43.236;27.986;2024-02-26T12:53:40;99833.63;;;9.98;100.00
10310;BME280;5200;43.236;27.986;2024-02-26T12:56:08;99845.94;;;10.07;100.00
10310;BME280;5200;43.236;27.986;2024-02-26T12:58:36;99833.22;;;9.93;100.00